sensor_id;sensor_type;location;lat;lon;timestamp;P1;durP1;ratioP1;P2;durP2;ratioP2
16837;SDS011;19510;54.486;9.046;2023-04-24T06:26:12;6.45;;;4.63;;
16837;SDS011;19510;54.486;9.046;2023-04-24T06:32:02;5.78;;;4.30;;
16837;SDS011;19510;54.486;9.046;2023-04-24T06:41:02;5.60;;;3.90;;
16837;SDS011;19510;54.486;9.046;2023-04-24T06:43:30;4.80;;;3.55;;
16837;SDS011;19510;54.486;9.046;2023-04-24T06:45:57;5.75;;;3.88;;
16837;SDS011;19510;54.486;9.046;2023-04-24T06:48:25;7.22;;;4.30;;
16837;SDS011;19510;54.486;9.046;2023-04-24T06:50:51;6.22;;;4.30;;
16837;SDS011;19510;54.486;9.046;2023-04-24T06:53:20;5.32;;;3.72;;
16837;SDS011;19510;54.486;9.046;2023-04-24T06:55:48;6.80;;;3.50;;
16837;SDS011;19510;54.486;9.046;2023-04-24T06:58:14;4.63;;;3.22;;
16837;SDS011;19510;54.486;9.046;2023-04-24T07:00:40;4.22;;;3.20;;
16837;SDS011;19510;54.486;9.046;2023-04-24T07:03:05;6.43;;;3.63;;
16837;SDS011;19510;54.486;9.046;2023-04-24T07:05:31;5.43;;;3.42;;
16837;SDS011;19510;54.486;9.046;2023-04-24T07:07:58;4.80;;;3.30;;
16837;SDS011;19510;54.486;9.046;2023-04-24T07:10:25;8.60;;;4.45;;
16837;SDS011;19510;54.486;9.046;2023-04-24T07:12:54;9.32;;;3.17;;
16837;SDS011;19510;54.486;9.046;2023-04-24T07:15:21;7.53;;;3.50;;
16837;SDS011;19510;54.486;9.046;2023-04-24T07:17:47;6.80;;;3.97;;
16837;SDS011;19510;54.486;9.046;2023-04-24T07:23:34;7.50;;;4.10;;
16837;SDS011;19510;54.486;9.046;2023-04-24T07:26:00;6.63;;;4.60;;
16837;SDS011;19510;54.486;9.046;2023-04-24T07:28:28;5.72;;;4.10;;
16837;SDS011;19510;54.486;9.046;2023-04-24T07:30:56;5.60;;;3.72;;
16837;SDS011;19510;54.486;9.046;2023-04-24T07:33:22;6.78;;;3.97;;
16837;SDS011;19510;54.486;9.046;2023-04-24T07:35:48;6.63;;;4.90;;
16837;SDS011;19510;54.486;9.046;2023-04-24T07:38:14;6.35;;;4.03;;
16837;SDS011;19510;54.486;9.046;2023-04-24T07:40:39;6.90;;;4.25;;
16837;SDS011;19510;54.486;9.046;2023-04-24T07:43:05;5.03;;;3.60;;
16837;SDS011;19510;54.486;9.046;2023-04-24T07:45:31;6.78;;;4.10;;
16837;SDS011;19510;54.486;9.046;2023-04-24T07:48:01;7.82;;;4.32;;
16837;SDS011;19510;54.486;9.046;2023-04-24T07:50:26;5.55;;;3.85;;
16837;SDS011;19510;54.486;9.046;2023-04-24T07:52:52;8.90;;;5.57;;
16837;SDS011;19510;54.486;9.046;2023-04-24T07:55:18;4.75;;;3.35;;
16837;SDS011;19510;54.486;9.046;2023-04-24T07:57:43;5.68;;;4.00;;
16837;SDS011;19510;54.486;9.046;2023-04-24T08:00:09;5.22;;;3.83;;
16837;SDS011;19510;54.486;9.046;2023-04-24T08:02:35;5.28;;;3.28;;
16837;SDS011;19510;54.486;9.046;2023-04-24T08:05:02;5.32;;;3.47;;
16837;SDS011;19510;54.486;9.046;2023-04-24T08:07:28;4.15;;;3.03;;
16837;SDS011;19510;54.486;9.046;2023-04-24T08:09:54;5.78;;;3.13;;
16837;SDS011;19510;54.486;9.046;2023-04-24T08:12:20;4.63;;;3.10;;
16837;SDS011;19510;54.486;9.046;2023-04-24T08:14:45;5.65;;;3.58;;
16837;SDS011;19510;54.486;9.046;2023-04-24T08:17:11;5.80;;;3.42;;
16837;SDS011;19510;54.486;9.046;2023-04-24T08:19:42;8.25;;;3.95;;
16837;SDS011;19510;54.486;9.046;2023-04-24T08:22:12;5.63;;;3.40;;
16837;SDS011;19510;54.486;9.046;2023-04-24T08:24:38;5.65;;;3.55;;
16837;SDS011;19510;54.486;9.046;2023-04-24T08:27:06;5.95;;;3.85;;
16837;SDS011;19510;54.486;9.046;2023-04-24T08:29:33;5.20;;;3.38;;
16837;SDS011;19510;54.486;9.046;2023-04-24T08:31:58;7.75;;;3.88;;
16837;SDS011;19510;54.486;9.046;2023-04-24T08:34:24;8.20;;;4.38;;
16837;SDS011;19510;54.486;9.046;2023-04-24T08:36:50;6.60;;;3.63;;
16837;SDS011;19510;54.486;9.046;2023-04-24T08:39:15;5.57;;;3.88;;
16837;SDS011;19510;54.486;9.046;2023-04-24T08:41:42;8.93;;;3.80;;
16837;SDS011;19510;54.486;9.046;2023-04-24T08:44:10;5.95;;;3.58;;
16837;SDS011;19510;54.486;9.046;2023-04-24T08:46:36;6.13;;;3.03;;
16837;SDS011;19510;54.486;9.046;2023-04-24T08:49:05;4.93;;;3.15;;
16837;SDS011;19510;54.486;9.046;2023-04-24T08:51:33;3.95;;;2.80;;
16837;SDS011;19510;54.486;9.046;2023-04-24T08:54:01;5.03;;;3.22;;
16837;SDS011;19510;54.486;9.046;2023-04-24T08:56:29;5.53;;;2.80;;
16837;SDS011;19510;54.486;9.046;2023-04-24T08:58:56;7.07;;;3.05;;
16837;SDS011;19510;54.486;9.046;2023-04-24T09:01:22;6.15;;;3.40;;
16837;SDS011;19510;54.486;9.046;2023-04-24T09:03:50;4.63;;;3.25;;
16837;SDS011;19510;54.486;9.046;2023-04-24T09:06:18;4.13;;;2.88;;
16837;SDS011;19510;54.486;9.046;2023-04-24T09:08:46;5.07;;;3.15;;
16837;SDS011;19510;54.486;9.046;2023-04-24T09:11:16;5.00;;;3.25;;
16837;SDS011;19510;54.486;9.046;2023-04-24T09:13:45;4.35;;;2.80;;
16837;SDS011;19510;54.486;9.046;2023-04-24T09:16:11;4.70;;;3.15;;
16837;SDS011;19510;54.486;9.046;2023-04-24T09:18:39;5.25;;;3.45;;
16837;SDS011;19510;54.486;9.046;2023-04-24T09:21:08;5.15;;;3.05;;
16837;SDS011;19510;54.486;9.046;2023-04-24T09:23:34;4.07;;;3.13;;
16837;SDS011;19510;54.486;9.046;2023-04-24T09:26:01;3.95;;;2.63;;
16837;SDS011;19510;54.486;9.046;2023-04-24T09:28:35;5.40;;;2.92;;
16837;SDS011;19510;54.486;9.046;2023-04-24T09:31:12;5.05;;;2.97;;
16837;SDS011;19510;54.486;9.046;2023-04-24T09:33:53;6.60;;;3.40;;
16837;SDS011;19510;54.486;9.046;2023-04-24T09:36:26;4.85;;;2.90;;
16837;SDS011;19510;54.486;9.046;2023-04-24T09:38:55;5.35;;;2.88;;
16837;SDS011;19510;54.486;9.046;2023-04-24T09:41:23;5.32;;;3.42;;
16837;SDS011;19510;54.486;9.046;2023-04-24T09:43:49;4.90;;;3.30;;
16837;SDS011;19510;54.486;9.046;2023-04-24T09:46:15;6.15;;;3.35;;
16837;SDS011;19510;54.486;9.046;2023-04-24T09:48:48;3.95;;;3.38;;
16837;SDS011;19510;54.486;9.046;2023-04-24T09:51:14;4.55;;;3.50;;
16837;SDS011;19510;54.486;9.046;2023-04-24T09:53:44;5.00;;;3.03;;
16837;SDS011;19510;54.486;9.046;2023-04-24T09:56:17;4.60;;;3.20;;
16837;SDS011;19510;54.486;9.046;2023-04-24T09:58:45;4.75;;;2.90;;
16837;SDS011;19510;54.486;9.046;2023-04-24T10:01:11;4.72;;;2.92;;
16837;SDS011;19510;54.486;9.046;2023-04-24T10:03:41;3.65;;;2.80;;
16837;SDS011;19510;54.486;9.046;2023-04-24T10:06:07;5.45;;;3.00;;
16837;SDS011;19510;54.486;9.046;2023-04-24T10:08:37;3.30;;;2.72;;
16837;SDS011;19510;54.486;9.046;2023-04-24T10:11:03;4.60;;;2.83;;
16837;SDS011;19510;54.486;9.046;2023-04-24T10:13:29;3.92;;;2.85;;
16837;SDS011;19510;54.486;9.046;2023-04-24T10:15:57;4.45;;;2.80;;
16837;SDS011;19510;54.486;9.046;2023-04-24T10:18:25;2.85;;;2.42;;
16837;SDS011;19510;54.486;9.046;2023-04-24T10:20:52;3.97;;;2.70;;
16837;SDS011;19510;54.486;9.046;2023-04-24T10:23:20;3.25;;;2.70;;
16837;SDS011;19510;54.486;9.046;2023-04-24T10:25:46;5.15;;;2.80;;
16837;SDS011;19510;54.486;9.046;2023-04-24T10:28:12;3.33;;;2.40;;
16837;SDS011;19510;54.486;9.046;2023-04-24T10:30:40;3.20;;;2.45;;
16837;SDS011;19510;54.486;9.046;2023-04-24T10:33:08;7.60;;;2.40;;
16837;SDS011;19510;54.486;9.046;2023-04-24T10:35:36;4.78;;;3.10;;
16837;SDS011;19510;54.486;9.046;2023-04-24T10:38:13;2.78;;;2.40;;
16837;SDS011;19510;54.486;9.046;2023-04-24T10:40:44;4.93;;;3.00;;
16837;SDS011;19510;54.486;9.046;2023-04-24T10:43:09;4.97;;;2.70;;
16837;SDS011;19510;54.486;9.046;2023-04-24T10:45:36;4.22;;;3.30;;
16837;SDS011;19510;54.486;9.046;2023-04-24T10:50:46;5.50;;;2.85;;
16837;SDS011;19510;54.486;9.046;2023-04-24T10:53:17;5.57;;;3.35;;
16837;SDS011;19510;54.486;9.046;2023-04-24T10:55:57;3.33;;;2.42;;
16837;SDS011;19510;54.486;9.046;2023-04-24T10:58:24;3.72;;;2.60;;
16837;SDS011;19510;54.486;9.046;2023-04-24T11:01:04;9.95;;;3.42;;
16837;SDS011;19510;54.486;9.046;2023-04-24T11:03:31;4.13;;;2.78;;
16837;SDS011;19510;54.486;9.046;2023-04-24T11:06:03;7.57;;;3.25;;
16837;SDS011;19510;54.486;9.046;2023-04-24T11:16:30;7.93;;;3.97;;
16837;SDS011;19510;54.486;9.046;2023-04-24T11:21:59;6.85;;;4.50;;
16837;SDS011;19510;54.486;9.046;2023-04-24T11:24:37;7.20;;;4.63;;
16837;SDS011;19510;54.486;9.046;2023-04-24T11:35:12;3.28;;;2.20;;
16837;SDS011;19510;54.486;9.046;2023-04-24T11:37:46;3.63;;;2.30;;
16837;SDS011;19510;54.486;9.046;2023-04-24T11:40:16;3.95;;;2.28;;
16837;SDS011;19510;54.486;9.046;2023-04-24T11:42:45;3.92;;;2.20;;
16837;SDS011;19510;54.486;9.046;2023-04-24T11:45:21;4.75;;;2.63;;
16837;SDS011;19510;54.486;9.046;2023-04-24T11:47:52;5.90;;;3.13;;
16837;SDS011;19510;54.486;9.046;2023-04-24T11:50:22;5.63;;;2.92;;
16837;SDS011;19510;54.486;9.046;2023-04-24T11:52:50;6.00;;;2.80;;
16837;SDS011;19510;54.486;9.046;2023-04-24T11:57:46;5.28;;;2.33;;
16837;SDS011;19510;54.486;9.046;2023-04-24T12:00:19;2.38;;;1.90;;
16837;SDS011;19510;54.486;9.046;2023-04-24T12:03:02;3.17;;;1.90;;
16837;SDS011;19510;54.486;9.046;2023-04-24T12:05:30;4.25;;;1.90;;
16837;SDS011;19510;54.486;9.046;2023-04-24T12:07:59;3.38;;;2.00;;
16837;SDS011;19510;54.486;9.046;2023-04-24T12:10:25;2.85;;;1.60;;
16837;SDS011;19510;54.486;9.046;2023-04-24T12:12:53;4.43;;;1.80;;
16837;SDS011;19510;54.486;9.046;2023-04-24T12:15:21;2.83;;;1.85;;
16837;SDS011;19510;54.486;9.046;2023-04-24T12:17:50;2.75;;;1.60;;
16837;SDS011;19510;54.486;9.046;2023-04-24T12:20:16;4.50;;;2.20;;
16837;SDS011;19510;54.486;9.046;2023-04-24T12:22:55;3.38;;;2.05;;
16837;SDS011;19510;54.486;9.046;2023-04-24T12:25:23;2.25;;;1.80;;
16837;SDS011;19510;54.486;9.046;2023-04-24T12:27:54;5.53;;;1.80;;
16837;SDS011;19510;54.486;9.046;2023-04-24T12:33:17;5.10;;;3.10;;
16837;SDS011;19510;54.486;9.046;2023-04-24T12:35:47;3.75;;;2.97;;
16837;SDS011;19510;54.486;9.046;2023-04-24T12:38:21;6.82;;;2.90;;
16837;SDS011;19510;54.486;9.046;2023-04-24T12:41:01;5.63;;;3.00;;
16837;SDS011;19510;54.486;9.046;2023-04-24T12:43:29;4.57;;;2.75;;
16837;SDS011;19510;54.486;9.046;2023-04-24T12:45:55;4.65;;;2.47;;
16837;SDS011;19510;54.486;9.046;2023-04-24T12:48:26;6.40;;;2.97;;
16837;SDS011;19510;54.486;9.046;2023-04-24T12:50:57;4.32;;;2.88;;
16837;SDS011;19510;54.486;9.046;2023-04-24T12:53:26;5.72;;;2.90;;
16837;SDS011;19510;54.486;9.046;2023-04-24T12:55:54;3.28;;;2.20;;
16837;SDS011;19510;54.486;9.046;2023-04-24T12:58:21;2.30;;;1.52;;
16837;SDS011;19510;54.486;9.046;2023-04-24T13:00:47;1.52;;;1.40;;
16837;SDS011;19510;54.486;9.046;2023-04-24T13:03:15;1.52;;;1.40;;
16837;SDS011;19510;54.486;9.046;2023-04-24T13:05:44;5.13;;;1.80;;
16837;SDS011;19510;54.486;9.046;2023-04-24T13:08:09;3.53;;;2.33;;
16837;SDS011;19510;54.486;9.046;2023-04-24T13:10:37;3.03;;;2.00;;
16837;SDS011;19510;54.486;9.046;2023-04-24T13:13:04;3.08;;;2.05;;
16837;SDS011;19510;54.486;9.046;2023-04-24T13:15:29;2.17;;;1.98;;
16837;SDS011;19510;54.486;9.046;2023-04-24T13:17:55;4.53;;;2.50;;
16837;SDS011;19510;54.486;9.046;2023-04-24T13:20:23;3.85;;;1.85;;
16837;SDS011;19510;54.486;9.046;2023-04-24T13:22:49;8.85;;;2.90;;
16837;SDS011;19510;54.486;9.046;2023-04-24T13:25:15;11.30;;;3.45;;
16837;SDS011;19510;54.486;9.046;2023-04-24T13:27:42;8.98;;;4.15;;
16837;SDS011;19510;54.486;9.046;2023-04-24T13:30:10;5.47;;;3.75;;
16837;SDS011;19510;54.486;9.046;2023-04-24T13:32:38;8.93;;;3.65;;
16837;SDS011;19510;54.486;9.046;2023-04-24T13:35:06;6.07;;;3.60;;
16837;SDS011;19510;54.486;9.046;2023-04-24T13:37:33;6.35;;;4.13;;
16837;SDS011;19510;54.486;9.046;2023-04-24T13:39:58;10.07;;;5.97;;
16837;SDS011;19510;54.486;9.046;2023-04-24T13:42:27;14.07;;;4.50;;
16837;SDS011;19510;54.486;9.046;2023-04-24T13:44:52;8.00;;;4.53;;
16837;SDS011;19510;54.486;9.046;2023-04-24T13:47:19;7.72;;;4.72;;
16837;SDS011;19510;54.486;9.046;2023-04-24T13:49:44;11.18;;;5.65;;
16837;SDS011;19510;54.486;9.046;2023-04-24T13:52:15;12.10;;;5.47;;
16837;SDS011;19510;54.486;9.046;2023-04-24T13:54:41;11.88;;;5.78;;
16837;SDS011;19510;54.486;9.046;2023-04-24T13:57:07;12.20;;;5.53;;
16837;SDS011;19510;54.486;9.046;2023-04-24T13:59:35;14.25;;;6.47;;
16837;SDS011;19510;54.486;9.046;2023-04-24T14:02:02;9.73;;;5.95;;
16837;SDS011;19510;54.486;9.046;2023-04-24T14:04:27;12.77;;;5.70;;
16837;SDS011;19510;54.486;9.046;2023-04-24T14:06:53;8.52;;;5.43;;
16837;SDS011;19510;54.486;9.046;2023-04-24T14:09:19;10.95;;;5.28;;
16837;SDS011;19510;54.486;9.046;2023-04-24T14:11:44;10.27;;;5.25;;
16837;SDS011;19510;54.486;9.046;2023-04-24T14:14:10;10.27;;;5.00;;
16837;SDS011;19510;54.486;9.046;2023-04-24T14:16:36;11.05;;;4.97;;
16837;SDS011;19510;54.486;9.046;2023-04-24T14:19:02;11.25;;;5.05;;
16837;SDS011;19510;54.486;9.046;2023-04-24T14:21:32;9.38;;;5.05;;
16837;SDS011;19510;54.486;9.046;2023-04-24T14:23:58;10.35;;;5.55;;
16837;SDS011;19510;54.486;9.046;2023-04-24T14:26:27;11.30;;;5.35;;
16837;SDS011;19510;54.486;9.046;2023-04-24T14:28:52;11.77;;;5.50;;
16837;SDS011;19510;54.486;9.046;2023-04-24T14:31:18;9.32;;;5.22;;
16837;SDS011;19510;54.486;9.046;2023-04-24T14:33:44;9.25;;;5.30;;
16837;SDS011;19510;54.486;9.046;2023-04-24T14:36:10;8.65;;;4.63;;
16837;SDS011;19510;54.486;9.046;2023-04-24T14:38:36;10.93;;;5.75;;
16837;SDS011;19510;54.486;9.046;2023-04-24T14:41:04;5.78;;;3.78;;
16837;SDS011;19510;54.486;9.046;2023-04-24T14:43:34;5.50;;;3.20;;
16837;SDS011;19510;54.486;9.046;2023-04-24T14:46:00;5.35;;;3.03;;
16837;SDS011;19510;54.486;9.046;2023-04-24T14:48:29;6.03;;;3.50;;
16837;SDS011;19510;54.486;9.046;2023-04-24T14:50:58;9.00;;;3.47;;
16837;SDS011;19510;54.486;9.046;2023-04-24T14:53:25;8.38;;;3.83;;
16837;SDS011;19510;54.486;9.046;2023-04-24T14:55:53;4.05;;;2.90;;
16837;SDS011;19510;54.486;9.046;2023-04-24T14:58:19;6.63;;;3.35;;
16837;SDS011;19510;54.486;9.046;2023-04-24T15:00:47;7.03;;;3.78;;
16837;SDS011;19510;54.486;9.046;2023-04-24T15:03:17;15.13;;;4.20;;
16837;SDS011;19510;54.486;9.046;2023-04-24T15:05:43;8.52;;;4.95;;
16837;SDS011;19510;54.486;9.046;2023-04-24T15:08:12;11.90;;;6.22;;
16837;SDS011;19510;54.486;9.046;2023-04-24T15:10:37;10.55;;;5.53;;
16837;SDS011;19510;54.486;9.046;2023-04-24T15:13:03;12.20;;;5.40;;
16837;SDS011;19510;54.486;9.046;2023-04-24T15:15:33;11.65;;;5.60;;
16837;SDS011;19510;54.486;9.046;2023-04-24T15:24:40;11.57;;;6.32;;
16837;SDS011;19510;54.486;9.046;2023-04-24T15:27:08;16.63;;;6.10;;
16837;SDS011;19510;54.486;9.046;2023-04-24T15:29:35;16.10;;;5.50;;
16837;SDS011;19510;54.486;9.046;2023-04-24T15:32:01;17.77;;;5.85;;
16837;SDS011;19510;54.486;9.046;2023-04-24T15:34:27;8.17;;;4.67;;
16837;SDS011;19510;54.486;9.046;2023-04-24T15:36:52;9.95;;;4.97;;
16837;SDS011;19510;54.486;9.046;2023-04-24T15:39:21;10.50;;;5.68;;
16837;SDS011;19510;54.486;9.046;2023-04-24T15:41:49;12.57;;;4.82;;
16837;SDS011;19510;54.486;9.046;2023-04-24T15:44:15;12.40;;;3.78;;
16837;SDS011;19510;54.486;9.046;2023-04-24T15:46:41;12.80;;;5.05;;
16837;SDS011;19510;54.486;9.046;2023-04-24T15:49:06;10.75;;;4.78;;
16837;SDS011;19510;54.486;9.046;2023-04-24T15:51:32;9.35;;;4.18;;
16837;SDS011;19510;54.486;9.046;2023-04-24T15:53:58;8.73;;;4.53;;
16837;SDS011;19510;54.486;9.046;2023-04-24T15:56:24;7.97;;;3.73;;
16837;SDS011;19510;54.486;9.046;2023-04-24T15:58:49;13.17;;;4.33;;
16837;SDS011;19510;54.486;9.046;2023-04-24T16:01:15;15.63;;;5.40;;
16837;SDS011;19510;54.486;9.046;2023-04-24T16:03:41;13.65;;;5.32;;
16837;SDS011;19510;54.486;9.046;2023-04-24T16:06:07;11.97;;;5.13;;
16837;SDS011;19510;54.486;9.046;2023-04-24T16:08:33;10.70;;;4.38;;
16837;SDS011;19510;54.486;9.046;2023-04-24T16:10:59;16.83;;;6.07;;
16837;SDS011;19510;54.486;9.046;2023-04-24T16:13:25;11.63;;;5.00;;
16837;SDS011;19510;54.486;9.046;2023-04-24T16:15:53;12.73;;;5.20;;
16837;SDS011;19510;54.486;9.046;2023-04-24T16:18:18;14.93;;;5.07;;
16837;SDS011;19510;54.486;9.046;2023-04-24T16:20:45;10.13;;;4.50;;
16837;SDS011;19510;54.486;9.046;2023-04-24T16:23:10;21.17;;;5.53;;
16837;SDS011;19510;54.486;9.046;2023-04-24T16:25:39;16.93;;;5.83;;
16837;SDS011;19510;54.486;9.046;2023-04-24T16:28:07;13.23;;;5.20;;
16837;SDS011;19510;54.486;9.046;2023-04-24T16:30:33;16.03;;;6.10;;
16837;SDS011;19510;54.486;9.046;2023-04-24T16:33:02;19.00;;;5.90;;
16837;SDS011;19510;54.486;9.046;2023-04-24T16:35:31;17.93;;;5.20;;
16837;SDS011;19510;54.486;9.046;2023-04-24T16:37:57;14.83;;;5.53;;
16837;SDS011;19510;54.486;9.046;2023-04-24T16:40:25;14.40;;;4.80;;
16837;SDS011;19510;54.486;9.046;2023-04-24T16:42:52;14.73;;;5.53;;
16837;SDS011;19510;54.486;9.046;2023-04-24T16:45:18;15.50;;;4.90;;
16837;SDS011;19510;54.486;9.046;2023-04-24T16:47:44;14.97;;;5.07;;
16837;SDS011;19510;54.486;9.046;2023-04-24T16:50:10;15.77;;;4.47;;
16837;SDS011;19510;54.486;9.046;2023-04-24T16:52:38;9.48;;;4.20;;
16837;SDS011;19510;54.486;9.046;2023-04-24T16:55:04;10.97;;;4.60;;
16837;SDS011;19510;54.486;9.046;2023-04-24T16:57:30;10.50;;;4.10;;
16837;SDS011;19510;54.486;9.046;2023-04-24T16:59:56;13.43;;;3.83;;
16837;SDS011;19510;54.486;9.046;2023-04-24T17:02:24;15.63;;;4.03;;
16837;SDS011;19510;54.486;9.046;2023-04-24T17:04:50;10.37;;;3.43;;
16837;SDS011;19510;54.486;9.046;2023-04-24T17:07:21;10.03;;;3.73;;
16837;SDS011;19510;54.486;9.046;2023-04-24T17:09:47;8.93;;;4.60;;
16837;SDS011;19510;54.486;9.046;2023-04-24T17:12:13;11.53;;;3.27;;
16837;SDS011;19510;54.486;9.046;2023-04-24T17:14:41;14.00;;;3.20;;
16837;SDS011;19510;54.486;9.046;2023-04-24T17:17:07;10.40;;;3.37;;
16837;SDS011;19510;54.486;9.046;2023-04-24T17:19:32;13.33;;;3.27;;
16837;SDS011;19510;54.486;9.046;2023-04-24T17:22:01;14.60;;;3.27;;
16837;SDS011;19510;54.486;9.046;2023-04-24T17:24:30;5.17;;;2.70;;
16837;SDS011;19510;54.486;9.046;2023-04-24T17:26:58;10.80;;;3.07;;
16837;SDS011;19510;54.486;9.046;2023-04-24T17:29:24;7.23;;;2.07;;
16837;SDS011;19510;54.486;9.046;2023-04-24T17:31:50;6.60;;;2.17;;
16837;SDS011;19510;54.486;9.046;2023-04-24T17:34:16;4.03;;;1.90;;
16837;SDS011;19510;54.486;9.046;2023-04-24T17:36:41;14.30;;;2.73;;
16837;SDS011;19510;54.486;9.046;2023-04-24T17:39:08;11.30;;;2.60;;
16837;SDS011;19510;54.486;9.046;2023-04-24T17:41:34;6.20;;;2.33;;
16837;SDS011;19510;54.486;9.046;2023-04-24T17:44:00;13.33;;;2.03;;
16837;SDS011;19510;54.486;9.046;2023-04-24T17:46:28;10.77;;;2.80;;
16837;SDS011;19510;54.486;9.046;2023-04-24T17:48:54;5.73;;;2.47;;
16837;SDS011;19510;54.486;9.046;2023-04-24T17:51:19;6.33;;;2.07;;
16837;SDS011;19510;54.486;9.046;2023-04-24T17:53:45;6.17;;;2.00;;
16837;SDS011;19510;54.486;9.046;2023-04-24T17:56:12;6.77;;;2.07;;
16837;SDS011;19510;54.486;9.046;2023-04-24T17:58:38;8.00;;;2.00;;
16837;SDS011;19510;54.486;9.046;2023-04-24T18:01:15;5.93;;;1.80;;
16837;SDS011;19510;54.486;9.046;2023-04-24T18:03:43;7.07;;;1.77;;
16837;SDS011;19510;54.486;9.046;2023-04-24T18:06:08;11.80;;;2.00;;
16837;SDS011;19510;54.486;9.046;2023-04-24T18:08:34;8.70;;;1.90;;
16837;SDS011;19510;54.486;9.046;2023-04-24T18:11:00;5.80;;;1.70;;
16837;SDS011;19510;54.486;9.046;2023-04-24T18:13:27;7.60;;;2.13;;
16837;SDS011;19510;54.486;9.046;2023-04-24T18:15:53;4.67;;;1.87;;
16837;SDS011;19510;54.486;9.046;2023-04-24T18:18:18;4.57;;;1.90;;
16837;SDS011;19510;54.486;9.046;2023-04-24T18:20:46;5.90;;;2.23;;
16837;SDS011;19510;54.486;9.046;2023-04-24T18:23:12;3.80;;;2.10;;
16837;SDS011;19510;54.486;9.046;2023-04-24T18:25:40;2.90;;;1.75;;
16837;SDS011;19510;54.486;9.046;2023-04-24T18:28:08;6.53;;;2.27;;
16837;SDS011;19510;54.486;9.046;2023-04-24T18:30:36;5.70;;;2.33;;
16837;SDS011;19510;54.486;9.046;2023-04-24T18:33:02;7.27;;;2.90;;
16837;SDS011;19510;54.486;9.046;2023-04-24T18:35:33;6.70;;;2.77;;
16837;SDS011;19510;54.486;9.046;2023-04-24T18:37:59;10.57;;;3.30;;
16837;SDS011;19510;54.486;9.046;2023-04-24T18:40:25;11.53;;;2.73;;
16837;SDS011;19510;54.486;9.046;2023-04-24T18:42:51;4.93;;;2.80;;
16837;SDS011;19510;54.486;9.046;2023-04-24T18:45:16;9.20;;;2.80;;
16837;SDS011;19510;54.486;9.046;2023-04-24T18:47:46;4.28;;;2.65;;
16837;SDS011;19510;54.486;9.046;2023-04-24T18:50:14;6.00;;;2.40;;
16837;SDS011;19510;54.486;9.046;2023-04-24T18:52:40;7.13;;;3.30;;
16837;SDS011;19510;54.486;9.046;2023-04-24T18:55:06;5.07;;;2.63;;
16837;SDS011;19510;54.486;9.046;2023-04-24T18:57:33;5.03;;;3.33;;
16837;SDS011;19510;54.486;9.046;2023-04-24T18:59:59;7.10;;;3.73;;
16837;SDS011;19510;54.486;9.046;2023-04-24T19:02:25;7.23;;;4.00;;
16837;SDS011;19510;54.486;9.046;2023-04-24T19:04:53;8.50;;;4.67;;
16837;SDS011;19510;54.486;9.046;2023-04-24T19:07:19;14.20;;;5.13;;
16837;SDS011;19510;54.486;9.046;2023-04-24T19:09:45;11.93;;;5.20;;
16837;SDS011;19510;54.486;9.046;2023-04-24T19:12:11;9.83;;;4.97;;
16837;SDS011;19510;54.486;9.046;2023-04-24T19:14:36;12.90;;;4.23;;
16837;SDS011;19510;54.486;9.046;2023-04-24T19:17:02;9.40;;;4.20;;
16837;SDS011;19510;54.486;9.046;2023-04-24T19:19:28;9.67;;;5.60;;
16837;SDS011;19510;54.486;9.046;2023-04-24T19:21:56;10.87;;;5.17;;
16837;SDS011;19510;54.486;9.046;2023-04-24T19:24:24;13.80;;;5.67;;
16837;SDS011;19510;54.486;9.046;2023-04-24T19:26:52;10.63;;;5.70;;
16837;SDS011;19510;54.486;9.046;2023-04-24T19:29:18;11.50;;;5.27;;
16837;SDS011;19510;54.486;9.046;2023-04-24T19:31:44;14.47;;;5.90;;
16837;SDS011;19510;54.486;9.046;2023-04-24T19:34:12;6.93;;;4.00;;
16837;SDS011;19510;54.486;9.046;2023-04-24T19:36:38;7.63;;;3.83;;
16837;SDS011;19510;54.486;9.046;2023-04-24T19:39:04;16.17;;;4.57;;
16837;SDS011;19510;54.486;9.046;2023-04-24T19:41:30;15.00;;;5.03;;
16837;SDS011;19510;54.486;9.046;2023-04-24T19:43:58;8.47;;;4.10;;
16837;SDS011;19510;54.486;9.046;2023-04-24T19:46:23;7.73;;;3.33;;
16837;SDS011;19510;54.486;9.046;2023-04-24T19:48:52;7.67;;;3.23;;
16837;SDS011;19510;54.486;9.046;2023-04-24T19:51:18;8.67;;;2.93;;
16837;SDS011;19510;54.486;9.046;2023-04-24T19:53:44;13.30;;;3.60;;
16837;SDS011;19510;54.486;9.046;2023-04-24T19:56:13;7.03;;;3.10;;
16837;SDS011;19510;54.486;9.046;2023-04-24T19:58:39;10.23;;;3.37;;
16837;SDS011;19510;54.486;9.046;2023-04-24T20:01:04;9.33;;;3.80;;
16837;SDS011;19510;54.486;9.046;2023-04-24T20:03:30;5.87;;;3.27;;
16837;SDS011;19510;54.486;9.046;2023-04-24T20:05:56;10.17;;;3.30;;
16837;SDS011;19510;54.486;9.046;2023-04-24T20:08:24;11.03;;;3.50;;
16837;SDS011;19510;54.486;9.046;2023-04-24T20:10:52;13.70;;;3.40;;
16837;SDS011;19510;54.486;9.046;2023-04-24T20:13:18;10.57;;;3.30;;
16837;SDS011;19510;54.486;9.046;2023-04-24T20:15:46;6.30;;;3.00;;
16837;SDS011;19510;54.486;9.046;2023-04-24T20:18:12;11.53;;;3.23;;
16837;SDS011;19510;54.486;9.046;2023-04-24T20:20:40;16.60;;;3.87;;
16837;SDS011;19510;54.486;9.046;2023-04-24T20:23:08;14.37;;;3.50;;
16837;SDS011;19510;54.486;9.046;2023-04-24T20:25:34;16.40;;;3.90;;
16837;SDS011;19510;54.486;9.046;2023-04-24T20:28:02;15.33;;;4.30;;
16837;SDS011;19510;54.486;9.046;2023-04-24T20:30:28;7.10;;;2.87;;
16837;SDS011;19510;54.486;9.046;2023-04-24T20:32:55;13.23;;;3.30;;
16837;SDS011;19510;54.486;9.046;2023-04-24T20:35:21;14.90;;;3.30;;
16837;SDS011;19510;54.486;9.046;2023-04-24T20:37:46;12.63;;;4.67;;
16837;SDS011;19510;54.486;9.046;2023-04-24T20:40:12;21.33;;;4.50;;
16837;SDS011;19510;54.486;9.046;2023-04-24T20:42:38;12.50;;;3.33;;
16837;SDS011;19510;54.486;9.046;2023-04-24T20:45:06;10.87;;;3.60;;
16837;SDS011;19510;54.486;9.046;2023-04-24T20:47:33;12.67;;;2.83;;
16837;SDS011;19510;54.486;9.046;2023-04-24T20:49:59;12.33;;;3.93;;
16837;SDS011;19510;54.486;9.046;2023-04-24T20:52:27;16.90;;;4.10;;
16837;SDS011;19510;54.486;9.046;2023-04-24T20:54:55;21.33;;;3.07;;
16837;SDS011;19510;54.486;9.046;2023-04-24T20:57:21;6.77;;;2.53;;
16837;SDS011;19510;54.486;9.046;2023-04-24T20:59:47;13.10;;;3.00;;
16837;SDS011;19510;54.486;9.046;2023-04-24T21:02:12;8.23;;;2.67;;
16837;SDS011;19510;54.486;9.046;2023-04-24T21:04:40;9.50;;;2.30;;
16837;SDS011;19510;54.486;9.046;2023-04-24T21:07:06;13.50;;;3.10;;
16837;SDS011;19510;54.486;9.046;2023-04-24T21:09:34;10.97;;;3.20;;
16837;SDS011;19510;54.486;9.046;2023-04-24T21:11:59;14.13;;;3.83;;
16837;SDS011;19510;54.486;9.046;2023-04-24T21:14:26;13.33;;;2.73;;
16837;SDS011;19510;54.486;9.046;2023-04-24T21:16:52;9.07;;;3.20;;
16837;SDS011;19510;54.486;9.046;2023-04-24T21:19:23;5.77;;;2.37;;
16837;SDS011;19510;54.486;9.046;2023-04-24T21:21:49;10.80;;;2.73;;
16837;SDS011;19510;54.486;9.046;2023-04-24T21:24:15;12.40;;;2.87;;
16837;SDS011;19510;54.486;9.046;2023-04-24T21:26:43;10.83;;;2.80;;
16837;SDS011;19510;54.486;9.046;2023-04-24T21:29:10;7.53;;;2.43;;
16837;SDS011;19510;54.486;9.046;2023-04-24T21:31:38;8.37;;;2.10;;
16837;SDS011;19510;54.486;9.046;2023-04-24T21:34:04;7.57;;;2.57;;
16837;SDS011;19510;54.486;9.046;2023-04-24T21:36:30;8.00;;;1.67;;
16837;SDS011;19510;54.486;9.046;2023-04-24T21:38:55;11.97;;;2.13;;
16837;SDS011;19510;54.486;9.046;2023-04-24T21:41:24;6.50;;;1.50;;
16837;SDS011;19510;54.486;9.046;2023-04-24T21:43:50;12.30;;;2.00;;
16837;SDS011;19510;54.486;9.046;2023-04-24T21:46:16;8.63;;;2.13;;
16837;SDS011;19510;54.486;9.046;2023-04-24T21:48:42;13.77;;;2.20;;
16837;SDS011;19510;54.486;9.046;2023-04-24T21:51:09;5.00;;;1.90;;
16837;SDS011;19510;54.486;9.046;2023-04-24T21:53:35;8.17;;;2.00;;
16837;SDS011;19510;54.486;9.046;2023-04-24T21:56:00;6.13;;;1.80;;